METAR Data
IDs: Format: Raw Decoded Include TAF

Data at: 2320 UTC 25 Oct 2021

PAHN 252254Z AUTO 29009KT 10SM OVC065 04/M02 A2913 RMK AO2 SLP866 T00391022 TSNO $
PAHN 252154Z AUTO 29010KT 10SM FEW070 OVC085 03/M01 A2913 RMK AO2 SLP866 T00281011 TSNO $
PAHN 252054Z AUTO 29011KT 10SM OVC080 02/M02 A2913 RMK AO2 SLP868 T00221017 53001 TSNO $
PAHN 251954Z AUTO 29013KT 10SM OVC090 02/M02 A2913 RMK AO2 SLP866 T00171017 TSNO $
PAHN 251854Z AUTO 29013KT 10SM FEW090 01/M02 A2912 RMK AO2 SLP865 T00111017 TSNO $
PAHN 251754Z AUTO 30010KT 10SM CLR 02/M02 A2913 RMK AO2 SLP867 T00171022 10022 21006 56010 TSNO $
PAHN 251654Z AUTO 29011KT 10SM CLR 00/M02 A2913 RMK AO2 SLP868 T00001017 TSNO $
PAHN 251554Z AUTO 29012KT 10SM CLR 00/M02 A2915 RMK AO2 SLP873 T00001017 TSNO $
PAHN 251454Z AUTO 29013KT 10SM CLR 00/M02 A2916 RMK AO2 SLP876 T00001017 56014 TSNO $
PAHN 251354Z AUTO 29013KT 10SM CLR 00/M02 A2917 RMK AO2 SLP881 T00001017 TSNO $
PAHN 251254Z AUTO 29015KT 10SM CLR 00/M01 A2918 RMK AO2 SLP883 T00001011 TSNO $
PAHN 251154Z AUTO 29013KT 10SM CLR 00/M01 A2920 RMK AO2 SLP890 T00001011 10050 20000 58006 TSNO $
PAHN 251054Z AUTO 30014KT 10SM CLR 02/M01 A2921 RMK AO2 SLP892 T00171011 TSNO $
PAHN 250954Z AUTO 29014KT 10SM CLR 01/M01 A2921 RMK AO2 SLP895 T00111011 TSNO $
PAHN 250854Z AUTO 29015KT 10SM CLR 02/M01 A2922 RMK AO2 SLP896 T00171006 400890017 58012 TSNO $
PAHN 250754Z AUTO 29013KT 10SM CLR 02/M01 A2923 RMK AO2 SLP900 T00221006 TSNO $
PAHN 250654Z AUTO 29013KT 10SM CLR 02/01 A2924 RMK AO2 SLP904 T00220006 TSNO $
PAHN 250554Z AUTO 30011G19KT 10SM CLR 05/00 A2925 RMK AO2 SLP908 T00500000 10078 20033 58010 TSNO $
PAHN 250454Z AUTO 29013KT 10SM CLR 04/01 A2926 RMK AO2 SLP912 T00440006 TSNO $
PAHN 250354Z AUTO 30012KT 10SM CLR 05/02 A2928 RMK AO2 SLP916 T00500017 TSNO $
PAHN 250254Z AUTO 32010KT 10SM CLR 06/02 A2928 RMK AO2 SLP918 T00560017 56017 TSNO $
PAHN 250154Z AUTO 32010KT 10SM CLR 06/02 A2930 RMK AO2 SLP924 T00610017 TSNO $
PAHN 250054Z AUTO 31009KT 10SM CLR 07/02 A2931 RMK AO2 SLP929 T00670017 TSNO $
PAHN 242354Z AUTO 32013KT 10SM CLR 08/01 A2933 RMK AO2 SLP935 T00780011 10089 20061 56023 TSNO $
PAHN 242254Z AUTO 30012KT 10SM CLR 08/02 A2935 RMK AO2 SLP941 T00830022 TSNO $
PAHN 242154Z AUTO 30012KT 10SM CLR 08/02 A2938 RMK AO2 SLP951 T00830022 TSNO $
PAHN 242054Z AUTO 30016KT 10SM CLR 08/02 A2940 RMK AO2 SLP958 T00780022 58021 TSNO $
PAHN 241954Z AUTO 29014KT 10SM FEW023 07/03 A2942 RMK AO2 SLP966 T00720028 TSNO $
PAHN 241854Z AUTO 30014KT 10SM FEW018 07/02 A2945 RMK AO2 SLP975 T00670022 TSNO $
PAHN 241754Z AUTO 31012G20KT 10SM CLR 06/03 A2946 RMK AO2 SLP979 T00610028 10061 20039 58010 TSNO $
PAHN 241654Z AUTO 30010G14KT 10SM CLR 05/03 A2947 RMK AO2 SLP983 T00500028 TSNO $
PAHN 241554Z AUTO 31011KT 10SM SCT065 05/03 A2949 RMK AO2 SLP987 T00500028 TSNO $
PAHN 241454Z AUTO 30009KT 10SM OVC060 04/03 A2949 RMK AO2 SLP989 T00440028 55003 TSNO $
PAHN 241354Z AUTO 31007KT 10SM OVC060 05/03 A2949 RMK AO2 SLP989 T00500033 TSNO $
PAHN 241254Z AUTO 29007KT 10SM FEW012 FEW031 OVC065 04/03 A2949 RMK AO2 SLP989 T00440033 TSNO $
PAHN 241154Z AUTO 32003KT 10SM BKN060 04/03 A2950 RMK AO2 SLP992 60002 70010 T00440033 10078 20039 51008 TSNO $